Buoy 13516

sailwx.info

Track history (hours):
 
Tides and Currents Weather Stations Pressure Air Temp Water Temp Dewpoint Dewpoint Depression Visibility Wind Speed Wind Dir Waves Ship Positions

Ao Chao Yang 13516

Last reported at 2016-May-03 06:24 UTC. Time now 2016-May-03 06:46 UTC.
Position N 31°09' W 042°13'.

Length 20 m.

Type: Fishing. MMSI: 412469022.

Water temperature 21.1 ° C

Date/timePositionNaut miles runAvg speedWind from/ knotsBaromVisibWave heightAir tempDewpointWater temp
2016-May-03 06:24N 31°09' W 042°13'0 3.3 21.1
2016-May-03 06:21N 31°09' W 042°13'1 8.1 21.1
2016-May-03 06:17N 31°08' W 042°13'1 0.2 21.1
2016-May-03 01:38N 31°07' W 042°14'0 2.1 21.1
2016-May-03 01:32N 31°08' W 042°14'0 0.0 21.1
2016-May-03 00:50N 31°08' W 042°14'0 1.4 21.1
2016-May-03 00:45N 31°07' W 042°14'0 6.3 21.1
2016-May-03 00:42N 31°07' W 042°14'0 0.6 21.1
2016-May-02 23:56N 31°08' W 042°14'0 0.6 21.1
2016-May-02 23:08N 31°07' W 042°15'1 7.4 21.1
2016-May-02 23:03N 31°07' W 042°15'0 0.5 21.1
2016-May-02 22:17N 31°07' W 042°15'0 1.3 21.2
2016-May-02 22:11N 31°07' W 042°15'0 3.7 21.2
2016-May-02 22:08N 31°07' W 042°15'0 0.0 21.2
2016-May-02 21:30N 31°07' W 042°15'0 1.3 21.2
2016-May-02 21:23N 31°07' W 042°15'0 0.1 21.2
2016-May-02 20:56N 31°07' W 042°16'0 3.7 21.2
2016-May-02 20:51N 31°07' W 042°16'0 0.5 21.2
2016-May-02 20:20N 31°07' W 042°16'0 0.0 21.2
2016-May-02 19:53N 31°07' W 042°16'0 3.2 21.2
2016-May-02 19:48N 31°07' W 042°16'0 0.2 21.2
2016-May-02 17:54N 31°07' W 042°17'1 0.2 21.3
2016-May-02 14:17N 31°06' W 042°16'0 0.6 21.2
2016-May-02 13:32N 31°06' W 042°16'1 3.9 21.1
2016-May-02 13:23N 31°06' W 042°17'0 0.0 21.1
2016-May-02 12:39N 31°06' W 042°17'0 0.0 21.1
2016-May-02 12:36N 31°06' W 042°17'0 4.0 21.1
2016-May-02 12:32N 31°06' W 042°17'0 0.0 21.1
2016-May-02 11:53N 31°06' W 042°17'0 0.3 21.0
2016-May-02 11:09N 31°06' W 042°17'0 0.0 21.0
2016-May-02 10:56N 31°06' W 042°17'122.7 21.0
2016-May-02 10:54N 31°06' W 042°18'0 0.0 21.0
2016-May-02 10:06N 31°06' W 042°18'0 0.3 21.0
2016-May-02 09:36N 31°06' W 042°18'1 3.4 21.0
2016-May-02 09:27N 31°06' W 042°19'0 0.0 21.0
2016-May-02 09:24N 31°06' W 042°19'0 0.2 21.0
2016-May-02 08:32N 31°06' W 042°19'0 0.0 21.0
2016-May-02 07:51N 31°06' W 042°19'0 7.4 21.0
2016-May-02 07:47N 31°06' W 042°19'0 0.0 21.0
2016-May-02 06:36N 31°06' W 042°19'0 0.0 20.9
2016-May-02 06:32N 31°06' W 042°19'110.2 20.9
2016-May-02 06:29N 31°05' W 042°19'1 0.2 20.9
2016-May-02 01:56N 31°06' W 042°20'1 0.2 21.0
2016-May-01 22:38N 31°06' W 042°20'0 4.0
2016-May-01 22:33N 31°06' W 042°21'0 0.0 21.1
2016-May-01 21:54N 31°06' W 042°21'0 3.6 21.1
2016-May-01 21:47N 31°06' W 042°21'0 0.0 21.1
2016-May-01 21:09N 31°06' W 042°21'0 0.0 21.2
2016-May-01 21:05N 31°06' W 042°21'0 0.0 21.2
2016-May-01 20:56N 31°06' W 042°21'0 3.1 21.2
2016-May-01 20:50N 31°06' W 042°21'0 0.0 21.2
2016-May-01 20:17N 31°06' W 042°21'0 0.1 21.2
2016-May-01 19:29N 31°06' W 042°21'0 0.2 21.2
2016-May-01 18:35N 31°06' W 042°21'0 0.6 21.2
2016-May-01 18:11N 31°06' W 042°21'0 2.3 21.2
2016-May-01 18:06N 31°06' W 042°21'1 0.3 21.2
2016-May-01 16:30N 31°06' W 042°22'0 0.2 21.2
2016-May-01 14:36N 31°06' W 042°22'0 0.5
2016-May-01 13:45N 31°06' W 042°22'0 0.0 21.0
2016-May-01 13:02N 31°06' W 042°22'0 0.4 20.9
2016-May-01 12:03N 31°06' W 042°23'0 0.2 20.9
2016-May-01 10:39N 31°06' W 042°23'0 0.3 20.8
2016-May-01 10:21N 31°06' W 042°23'0 0.5 20.8
2016-May-01 09:48N 31°06' W 042°23'0 4.1 20.8
2016-May-01 09:41N 31°06' W 042°23'0 0.4 20.8
2016-May-01 08:44N 31°06' W 042°23'0 0.5 20.8
2016-May-01 07:56N 31°05' W 042°23'0 0.2 20.8
2016-May-01 07:17N 31°05' W 042°23'0 2.1 20.8
2016-May-01 07:11N 31°05' W 042°23'0 0.0 20.8
2016-May-01 07:03N 31°05' W 042°23'0 0.6 20.8
2016-May-01 06:48N 31°05' W 042°23'0 0.9 20.8
2016-May-01 06:41N 31°05' W 042°23'0 8.2 20.8
2016-May-01 06:39N 31°06' W 042°23'1 0.4 20.8
2016-May-01 04:59N 31°06' W 042°23'0 0.0 20.8
2016-May-01 01:24N 31°06' W 042°23'0 0.2 20.8
2016-May-01 00:33N 31°06' W 042°23'0 0.6 20.8
2016-Apr-30 23:50N 31°06' W 042°24'0 1.6 20.8
2016-Apr-30 23:47N 31°06' W 042°24'0 2.9 20.8
2016-Apr-30 23:42N 31°07' W 042°24'0 0.2 20.8
2016-Apr-30 21:32N 31°07' W 042°23'0 3.8 20.8
2016-Apr-30 21:26N 31°07' W 042°24'0 3.4 20.9
2016-Apr-30 21:21N 31°07' W 042°23'0 0.8 20.9
2016-Apr-30 21:11N 31°07' W 042°24'0 0.0 20.9
2016-Apr-30 20:42N 31°07' W 042°24'0 1.2 20.9
2016-Apr-30 20:38N 31°07' W 042°23'0 0.3 20.9
2016-Apr-30 19:51N 31°07' W 042°24'0 0.0 20.9
2016-Apr-30 19:41N 31°07' W 042°24'0 0.2 20.9
2016-Apr-30 18:20N 31°07' W 042°23'0 0.6 20.9
2016-Apr-30 18:15N 31°07' W 042°23'1 0.4 20.9
2016-Apr-30 14:57N 31°09' W 042°24'0 0.3
2016-Apr-30 14:08N 31°09' W 042°24'0 0.1 20.7
2016-Apr-30 13:21N 31°09' W 042°24'1 0.5 20.7
2016-Apr-30 12:24N 31°09' W 042°24'0 0.1 20.7
2016-Apr-30 11:00N 31°09' W 042°24'0 0.0 20.6
2016-Apr-30 09:56N 31°09' W 042°24'0 1.4 20.6
2016-Apr-30 09:51N 31°09' W 042°24'0 0.0 20.6
2016-Apr-30 09:23N 31°09' W 042°24'0 0.3 20.6
2016-Apr-30 09:08N 31°09' W 042°24'0 0.3 20.6
2016-Apr-30 08:08N 31°09' W 042°24'0 0.1 20.5
2016-Apr-30 07:44N 31°09' W 042°24'0 0.4 20.6
2016-Apr-30 07:33N 31°09' W 042°24'0 0.3 20.6
2016-Apr-30 06:56N 31°09' W 042°24'0 3.4 20.5
2016-Apr-30 06:51N 31°09' W 042°24'0 0.0 20.5
2016-Apr-30 05:21N 31°09' W 042°24'1 5.9 20.6
2016-Apr-30 05:09N 31°10' W 042°23'0 0.0 20.6
2016-Apr-30 00:56N 31°10' W 042°23'0 9.2 20.6
2016-Apr-30 00:53N 31°10' W 042°23'0 0.3 20.6
2016-Apr-30 00:11N 31°10' W 042°23'0 4.4 20.6
2016-Apr-30 00:06N 31°10' W 042°23'0 7.8 20.6
2016-Apr-30 00:03N 31°10' W 042°23'0 0.0 20.6
2016-Apr-29 23:21N 31°10' W 042°23'0 0.1 20.6
2016-Apr-29 22:03N 31°10' W 042°23'0 0.2 20.6
2016-Apr-29 21:32N 31°10' W 042°23'0 2.6 20.7
2016-Apr-29 21:26N 31°10' W 042°23'0 0.0 20.7
2016-Apr-29 21:06N 31°10' W 042°23'0 2.0 20.7
2016-Apr-29 20:59N 31°10' W 042°23'0 0.2 20.7
2016-Apr-29 19:51N 31°10' W 042°23'0 0.4 20.8
2016-Apr-29 19:26N 31°10' W 042°23'0 9.5 20.8
2016-Apr-29 19:23N 31°10' W 042°22'0 0.0 20.8
2016-Apr-29 18:33N 31°10' W 042°22'1 6.0 20.8
2016-Apr-29 18:26N 31°09' W 042°23'0 0.0 20.8
2016-Apr-29 18:06N 31°09' W 042°23'0 0.3 20.8
2016-Apr-29 16:42N 31°09' W 042°22'0 0.0 20.8
2016-Apr-29 14:29N 31°09' W 042°22'0 0.0 20.7
2016-Apr-29 13:44N 31°09' W 042°22'0 4.7 20.7
2016-Apr-29 13:39N 31°09' W 042°22'0 0.4 20.7
2016-Apr-29 12:47N 31°09' W 042°22'0 0.0 20.6
2016-Apr-29 12:02N 31°09' W 042°22'0 0.0 20.6
2016-Apr-29 11:56N 31°09' W 042°22'014.0 20.6
2016-Apr-29 11:54N 31°08' W 042°22'0 0.3 20.6
2016-Apr-29 11:08N 31°08' W 042°22'0 0.0 20.6
2016-Apr-29 10:11N 31°08' W 042°22'0 1.0 20.6
2016-Apr-29 10:03N 31°09' W 042°22'0 1.4 20.6
2016-Apr-29 09:50N 31°08' W 042°22'0 1.9 20.6
2016-Apr-29 09:39N 31°08' W 042°22'0 0.3 20.6
2016-Apr-29 08:20N 31°08' W 042°22'0 0.3 20.6
2016-Apr-29 08:08N 31°08' W 042°22'0 7.1 20.6
2016-Apr-29 08:06N 31°08' W 042°23'0 0.4 20.6
2016-Apr-29 07:09N 31°08' W 042°23'1 6.3 20.6
2016-Apr-29 07:03N 31°07' W 042°22'0 0.2 20.6
2016-Apr-29 05:20N 31°08' W 042°22'0 0.0 20.6
2016-Apr-29 01:20N 31°07' W 042°22'0 3.6 20.7
2016-Apr-29 01:14N 31°07' W 042°22'0 0.3 20.7
2016-Apr-29 00:26N 31°07' W 042°22'1 0.6 20.7
2016-Apr-28 22:51N 31°08' W 042°22'1 0.7 20.7
2016-Apr-28 21:54N 31°08' W 042°23'0 0.0 20.7
2016-Apr-28 21:42N 31°08' W 042°23'0 1.3 20.7
2016-Apr-28 21:36N 31°08' W 042°23'0 0.0 20.7
2016-Apr-28 21:30N 31°08' W 042°23'0 0.2 20.7
2016-Apr-28 20:44N 31°08' W 042°23'0 0.0 20.7
2016-Apr-28 20:03N 31°08' W 042°23'0 1.9 20.7
2016-Apr-28 19:53N 31°08' W 042°23'0 0.0 20.7
2016-Apr-28 19:48N 31°08' W 042°23'0 0.0 20.7
2016-Apr-28 18:44N 31°08' W 042°23'0 5.2 20.8
2016-Apr-28 18:41N 31°08' W 042°23'112.5 20.8
2016-Apr-28 18:38N 31°08' W 042°24'0 0.0 20.8
2016-Apr-28 18:20N 31°08' W 042°24'1 5.1 20.8
2016-Apr-28 18:06N 31°07' W 042°24'0 0.1 20.8
2016-Apr-28 14:03N 31°06' W 042°23'0 2.3 20.8
2016-Apr-28 13:56N 31°06' W 042°23'0 0.1
2016-Apr-28 11:32N 31°06' W 042°23'0 1.6 20.7
2016-Apr-28 11:27N 31°06' W 042°23'0 0.1 20.7
2016-Apr-28 10:38N 31°06' W 042°23'0 0.5 20.7
2016-Apr-28 10:09N 31°06' W 042°23'0 0.0 20.7
2016-Apr-28 08:42N 31°06' W 042°23'0 0.0
2016-Apr-28 08:39N 31°06' W 042°23'0 0.2 20.7
2016-Apr-28 07:21N 31°06' W 042°23'1 4.3 20.7
2016-Apr-28 07:11N 31°06' W 042°23'0 1.2
2016-Apr-28 06:56N 31°06' W 042°23'0 0.3 20.7
2016-Apr-28 05:44N 31°06' W 042°23'1 0.2 20.7
2016-Apr-28 01:35N 31°06' W 042°23'0 0.0 20.7
2016-Apr-28 00:47N 31°06' W 042°23'0 0.4 20.7
2016-Apr-27 23:53N 31°06' W 042°24'0 0.0 20.7
2016-Apr-27 23:11N 31°06' W 042°24'0 0.0 20.7
2016-Apr-27 23:06N 31°06' W 042°24'0 0.0 20.7
2016-Apr-27 23:02N 31°06' W 042°24'0 0.3 20.7
2016-Apr-27 21:53N 31°07' W 042°23'0 0.9 20.8
2016-Apr-27 21:48N 31°07' W 042°23'1 0.5 20.8
2016-Apr-27 20:11N 31°07' W 042°24'0 2.9 20.8
2016-Apr-27 20:06N 31°08' W 042°24'0 0.8 20.8
2016-Apr-27 19:39N 31°08' W 042°24'0 0.0 20.8
2016-Apr-27 18:54N 31°08' W 042°24'0 0.8 20.8
2016-Apr-27 18:35N 31°08' W 042°24'0 9.0 20.8
2016-Apr-27 18:32N 31°08' W 042°25'1 0.3 20.8
2016-Apr-27 15:33N 31°08' W 042°26'1 0.6 20.9
2016-Apr-27 14:23N 31°07' W 042°26'0 8.9 20.8
2016-Apr-27 14:20N 31°07' W 042°26'0 0.0 20.8
2016-Apr-27 13:35N 31°07' W 042°26'0 0.0 20.8
2016-Apr-27 12:44N 31°07' W 042°26'0 3.2 20.7
2016-Apr-27 12:39N 31°07' W 042°26'1 7.6 20.7
2016-Apr-27 12:35N 31°07' W 042°27'0 0.0 20.7
2016-Apr-27 11:48N 31°07' W 042°27'0 0.4 20.6
2016-Apr-27 10:39N 31°07' W 042°27'0 1.9 20.6
2016-Apr-27 10:33N 31°07' W 042°27'0 0.3 20.6
2016-Apr-27 09:09N 31°07' W 042°27'0 0.0 20.6
2016-Apr-27 09:05N 31°07' W 042°27'0 2.6 20.6
2016-Apr-27 09:02N 31°07' W 042°27'0 1.5 20.6
2016-Apr-27 08:44N 31°07' W 042°28'0 0.1 20.6
2016-Apr-27 07:30N 31°07' W 042°28'0 7.1 20.6
2016-Apr-27 07:29N 31°07' W 042°28'0 1.5 20.6
2016-Apr-27 07:27N 31°07' W 042°28'0 2.6 20.6
2016-Apr-27 07:17N 31°08' W 042°28'1 5.2 20.6
2016-Apr-27 07:11N 31°07' W 042°28'0 0.0 20.6
2016-Apr-27 07:05N 31°07' W 042°28'0 0.0 20.6
2016-Apr-27 05:51N 31°07' W 042°28'0 0.0 20.6
2016-Apr-27 05:44N 31°07' W 042°28'1 0.5 20.6
2016-Apr-27 04:03N 31°08' W 042°29'0 0.1 20.6
2016-Apr-27 01:11N 31°08' W 042°29'0 0.0 20.7
2016-Apr-27 01:06N 31°08' W 042°29'0 0.0 20.7
2016-Apr-27 00:23N 31°08' W 042°29'0 2.1 20.7
2016-Apr-27 00:20N 31°08' W 042°29'0 2.8 20.7
2016-Apr-27 00:14N 31°08' W 042°29'0 0.0 20.7
2016-Apr-26 23:33N 31°08' W 042°29'0 1.6 20.7
2016-Apr-26 23:30N 31°08' W 042°29'1 5.7 20.7
2016-Apr-26 23:23N 31°08' W 042°30'0 0.5 20.7
2016-Apr-26 22:36N 31°08' W 042°30'0 0.0 20.7
2016-Apr-26 22:15N 31°08' W 042°30'0 0.5 20.7
2016-Apr-26 22:05N 31°08' W 042°30'0 0.0 20.7
2016-Apr-26 21:56N 31°08' W 042°30'1 0.8 20.7
2016-Apr-26 20:42N 31°09' W 042°31'0 2.4 20.7
2016-Apr-26 20:33N 31°09' W 042°32'0 0.0 20.7
2016-Apr-26 20:27N 31°09' W 042°32'0 0.4 20.7
2016-Apr-26 20:18N 31°09' W 042°32'1 7.9 20.7
2016-Apr-26 20:09N 31°09' W 042°33'0 0.0 20.7
2016-Apr-26 19:03N 31°09' W 042°33'0 2.1 20.7
2016-Apr-26 19:00N 31°09' W 042°33'0 1.0 20.7
2016-Apr-26 18:45N 31°09' W 042°33'1 0.9 20.7
2016-Apr-26 17:27N 31°09' W 042°35'213.4 20.6
2016-Apr-26 17:18N 31°09' W 042°37'1 0.6 20.6
2016-Apr-26 15:45N 31°09' W 042°38'1 0.5 20.6
2016-Apr-26 14:41N 31°09' W 042°38'0 0.0 20.5
2016-Apr-26 13:56N 31°09' W 042°38'1 4.0 20.5
2016-Apr-26 13:45N 31°08' W 042°39'0 0.0
2016-Apr-26 13:05N 31°08' W 042°39'0 0.4 20.5
2016-Apr-26 12:11N 31°08' W 042°39'0 5.2 20.4
2016-Apr-26 12:08N 31°08' W 042°39'1 1.1 20.4
2016-Apr-26 11:18N 31°08' W 042°40'0 0.6 20.4
2016-Apr-26 11:00N 31°08' W 042°40'1 2.0 20.4
2016-Apr-26 10:44N 31°08' W 042°40'0 7.8 20.4
2016-Apr-26 10:41N 31°07' W 042°40'0 0.0 20.4
2016-Apr-26 09:41N 31°07' W 042°40'0 3.2 20.5
2016-Apr-26 09:38N 31°07' W 042°40'0 0.3 20.5
2016-Apr-26 09:17N 31°07' W 042°40'1 1.7 20.5
2016-Apr-26 08:53N 31°07' W 042°40'0 0.0 20.5
2016-Apr-26 07:56N 31°07' W 042°40'0 1.1 20.5
2016-Apr-26 07:41N 31°07' W 042°41'0 0.2 20.5
2016-Apr-26 07:21N 31°07' W 042°41'1 7.7 20.5
2016-Apr-26 07:15N 31°07' W 042°42'0 0.0 20.5
2016-Apr-26 06:06N 31°07' W 042°42'0 0.8 20.6
2016-Apr-26 06:02N 31°07' W 042°42'2 1.0 20.6
2016-Apr-26 04:15N 31°08' W 042°44'0 0.1 20.6
2016-Apr-26 01:27N 31°08' W 042°44'1 0.8 20.8
2016-Apr-26 00:36N 31°08' W 042°44'1 0.9 20.9
2016-Apr-25 23:54N 31°08' W 042°44'0 0.0 20.9
2016-Apr-25 23:50N 31°08' W 042°44'1 0.8 20.9
2016-Apr-25 23:03N 31°09' W 042°45'0 2.6 20.9
2016-Apr-25 22:56N 31°09' W 042°45'0 0.5 20.9
2016-Apr-25 22:15N 31°09' W 042°45'120.6 20.9
2016-Apr-25 22:11N 31°10' W 042°45'0 0.4 21.0
2016-Apr-25 21:06N 31°10' W 042°46'1 1.3 21.0
2016-Apr-25 20:41N 31°10' W 042°46'0 0.9 21.1
2016-Apr-25 20:36N 31°10' W 042°46'223.0 21.1
2016-Apr-25 20:32N 31°12' W 042°47'0 0.0 21.1
2016-Apr-25 19:18N 31°12' W 042°47'0 0.0 21.3
2016-Apr-25 19:14N 31°12' W 042°47'1 0.8 21.3
2016-Apr-25 17:39N 31°12' W 042°48'1 0.8 21.5
2016-Apr-25 15:56N 31°13' W 042°49'2 0.9 21.5
2016-Apr-25 14:09N 31°14' W 042°51'0 0.0 20.8
2016-Apr-25 13:26N 31°14' W 042°51'1 0.7 20.7
2016-Apr-25 12:39N 31°14' W 042°51'1 1.3 20.6
2016-Apr-25 11:38N 31°14' W 042°53'0 0.1 20.5
2016-Apr-25 10:53N 31°14' W 042°53'0 5.6 20.4
2016-Apr-25 10:48N 31°15' W 042°53'0 0.1 20.4
2016-Apr-25 10:09N 31°15' W 042°53'0 4.7 20.4
2016-Apr-25 10:05N 31°15' W 042°53'0 0.0 20.4
2016-Apr-25 09:44N 31°15' W 042°53'014.9 20.4
2016-Apr-25 09:42N 31°15' W 042°53'0 0.2 20.4
2016-Apr-25 09:11N 31°15' W 042°53'1 0.7 20.4
2016-Apr-25 08:23N 31°16' W 042°54'0 0.0 20.4
2016-Apr-25 08:06N 31°16' W 042°54'0 4.7 20.4
2016-Apr-25 08:00N 31°16' W 042°54'0 0.0 20.4
2016-Apr-25 07:53N 31°16' W 042°54'0 9.3 20.4
2016-Apr-25 07:50N 31°16' W 042°54'0 0.0 20.4
2016-Apr-25 07:30N 31°16' W 042°54'1 1.3
2016-Apr-25 06:51N 31°16' W 042°54'0 0.1 20.4
2016-Apr-25 06:18N 31°16' W 042°54'1 5.5 20.4
2016-Apr-25 06:03N 31°17' W 042°55'3 0.7 20.4
2016-Apr-25 00:56N 31°20' W 042°58'0 0.0 20.5
2016-Apr-25 00:11N 31°20' W 042°58'1 0.8 20.5
2016-Apr-24 23:24N 31°21' W 042°58'0 1.0 20.5
2016-Apr-24 22:56N 31°21' W 042°58'0 0.6 20.5
2016-Apr-24 22:35N 31°21' W 042°59'112.3 20.5
2016-Apr-24 22:30N 31°22' W 042°60'0 0.0 20.5
2016-Apr-24 21:30N 31°22' W 042°60'1 0.9 20.5
2016-Apr-24 20:50N 31°22' W 043°00'1 9.3 20.5
2016-Apr-24 20:41N 31°23' W 043°01'1 0.7 20.5
2016-Apr-24 19:50N 31°23' W 043°02'0 0.0 20.5
2016-Apr-24 19:09N 31°23' W 043°02'149.5 20.5
2016-Apr-24 19:08N 31°23' W 043°03'0 0.0 20.5
2016-Apr-24 17:50N 31°23' W 043°03'3 0.8 20.5
2016-Apr-24 14:30N 31°24' W 043°06'0 0.0 20.4
2016-Apr-24 13:47N 31°24' W 043°06'0 0.5 20.4
2016-Apr-24 12:56N 31°24' W 043°06'1 1.0 20.4
2016-Apr-24 11:57N 31°25' W 043°07'0 0.0 20.4
2016-Apr-24 11:17N 31°25' W 043°07'0 2.8 20.4
2016-Apr-24 11:11N 31°25' W 043°07'0 0.0 20.4
2016-Apr-24 11:05N 31°25' W 043°07'1 1.0 20.4
2016-Apr-24 10:06N 31°25' W 043°09'0 0.0 20.3
2016-Apr-24 09:29N 31°25' W 043°09'0 2.1 20.3
2016-Apr-24 09:17N 31°25' W 043°09'0 2.1 20.3
2016-Apr-24 09:05N 31°25' W 043°09'0 1.6 20.3
2016-Apr-24 08:56N 31°26' W 043°09'1 1.4 20.3
2016-Apr-24 08:26N 31°26' W 043°10'0 0.0 20.3
2016-Apr-24 07:44N 31°26' W 043°10'1 6.2 20.3
2016-Apr-24 07:39N 31°26' W 043°10'0 0.0 20.3
2016-Apr-24 07:23N 31°26' W 043°10'1 0.8 20.3
2016-Apr-24 06:29N 31°26' W 043°11'0 1.0 20.3
2016-Apr-24 06:26N 31°26' W 043°11'1 7.8 20.3
2016-Apr-24 06:18N 31°26' W 043°12'0 0.0 20.3
2016-Apr-24 04:47N 31°26' W 043°12'3 0.8 20.3
2016-Apr-24 01:23N 31°27' W 043°15'1 7.0 20.3
2016-Apr-24 01:18N 31°27' W 043°16'1 0.6 20.3
2016-Apr-23 23:24N 31°27' W 043°17'0 0.0 20.3
2016-Apr-23 22:56N 31°27' W 043°17'0 1.6 20.3
2016-Apr-23 22:50N 31°27' W 043°17'125.0 20.3
2016-Apr-23 22:47N 31°28' W 043°18'0 0.4 20.3
2016-Apr-23 22:00N 31°28' W 043°18'0 2.7
2016-Apr-23 21:53N 31°27' W 043°17'1 1.1 20.3
2016-Apr-23 20:56N 31°28' W 043°19'124.8 20.3
2016-Apr-23 20:54N 31°28' W 043°18'2 2.9 20.3
2016-Apr-23 20:17N 31°28' W 043°20'1 3.8 20.3
2016-Apr-23 20:03N 31°29' W 043°20'0 0.0 20.3
2016-Apr-23 19:18N 31°29' W 043°20'1 0.8 20.4
2016-Apr-23 17:56N 31°28' W 043°22'3 0.9
2016-Apr-23 14:06N 31°29' W 043°25'111.3 20.3
2016-Apr-23 14:00N 31°29' W 043°27'0 0.0 20.3
2016-Apr-23 13:20N 31°29' W 043°27'0 0.0 20.3
2016-Apr-23 13:11N 31°29' W 043°27'1 0.9 20.3
2016-Apr-23 12:26N 31°29' W 043°27'1 7.6 20.3
2016-Apr-23 12:18N 31°30' W 043°29'0 0.3 20.3
2016-Apr-23 11:30N 31°30' W 043°29'0 0.0 20.3
2016-Apr-23 11:15N 31°30' W 043°29'0 5.7 20.3
2016-Apr-23 11:11N 31°30' W 043°29'0 0.0 20.3
2016-Apr-23 10:39N 31°30' W 043°29'1 4.3 20.3
2016-Apr-23 10:30N 31°29' W 043°30'0 0.0 20.3
2016-Apr-23 09:38N 31°29' W 043°30'0 1.2 20.3
2016-Apr-23 09:32N 31°29' W 043°30'1 1.3 20.3
2016-Apr-23 08:50N 31°29' W 043°31'0 0.0 20.3
2016-Apr-23 07:59N 31°29' W 043°31'0 1.6 20.3
2016-Apr-23 07:56N 31°29' W 043°31'113.3 20.3
2016-Apr-23 07:50N 31°30' W 043°32'0 0.0 20.3
2016-Apr-23 07:15N 31°30' W 043°32'0 0.0 20.3
2016-Apr-23 06:38N 31°30' W 043°32'0 0.6 20.3
2016-Apr-23 06:33N 31°30' W 043°32'   20.3
Track history (hours):
 
Tides and Currents Weather Stations Pressure Air Temp Water Temp Dewpoint Dewpoint Depression Visibility Wind Speed Wind Dir Waves Ship Positions

Ao Chao Yang 13516

Last reported at 2016-May-03 06:24 UTC. Time now 2016-May-03 06:46 UTC.
Position N 31°09' W 042°13'.

Length 20 m.

Type: Fishing. MMSI: 412469022.

Water temperature 21.1 ° C

Date/timePositionNaut miles runAvg speedWind from/ knotsBaromVisibWave heightAir tempDewpointWater temp
2016-May-03 06:24N 31°09' W 042°13'0 3.3 21.1
2016-May-03 06:21N 31°09' W 042°13'1 8.1 21.1
2016-May-03 06:17N 31°08' W 042°13'1 0.2 21.1
2016-May-03 01:38N 31°07' W 042°14'0 2.1 21.1
2016-May-03 01:32N 31°08' W 042°14'0 0.0 21.1
2016-May-03 00:50N 31°08' W 042°14'0 1.4 21.1
2016-May-03 00:45N 31°07' W 042°14'0 6.3 21.1
2016-May-03 00:42N 31°07' W 042°14'0 0.6 21.1
2016-May-02 23:56N 31°08' W 042°14'0 0.6 21.1
2016-May-02 23:08N 31°07' W 042°15'1 7.4 21.1
2016-May-02 23:03N 31°07' W 042°15'0 0.5 21.1
2016-May-02 22:17N 31°07' W 042°15'0 1.3 21.2
2016-May-02 22:11N 31°07' W 042°15'0 3.7 21.2
2016-May-02 22:08N 31°07' W 042°15'0 0.0 21.2
2016-May-02 21:30N 31°07' W 042°15'0 1.3 21.2
2016-May-02 21:23N 31°07' W 042°15'0 0.1 21.2
2016-May-02 20:56N 31°07' W 042°16'0 3.7 21.2
2016-May-02 20:51N 31°07' W 042°16'0 0.5 21.2
2016-May-02 20:20N 31°07' W 042°16'0 0.0 21.2
2016-May-02 19:53N 31°07' W 042°16'0 3.2 21.2
2016-May-02 19:48N 31°07' W 042°16'0 0.2 21.2
2016-May-02 17:54N 31°07' W 042°17'1 0.2 21.3
2016-May-02 14:17N 31°06' W 042°16'0 0.6 21.2
2016-May-02 13:32N 31°06' W 042°16'1 3.9 21.1
2016-May-02 13:23N 31°06' W 042°17'0 0.0 21.1
2016-May-02 12:39N 31°06' W 042°17'0 0.0 21.1
2016-May-02 12:36N 31°06' W 042°17'0 4.0 21.1
2016-May-02 12:32N 31°06' W 042°17'0 0.0 21.1
2016-May-02 11:53N 31°06' W 042°17'0 0.3 21.0
2016-May-02 11:09N 31°06' W 042°17'0 0.0 21.0
2016-May-02 10:56N 31°06' W 042°17'122.7 21.0
2016-May-02 10:54N 31°06' W 042°18'0 0.0 21.0
2016-May-02 10:06N 31°06' W 042°18'0 0.3 21.0
2016-May-02 09:36N 31°06' W 042°18'1 3.4 21.0
2016-May-02 09:27N 31°06' W 042°19'0 0.0 21.0
2016-May-02 09:24N 31°06' W 042°19'0 0.2 21.0
2016-May-02 08:32N 31°06' W 042°19'0 0.0 21.0
2016-May-02 07:51N 31°06' W 042°19'0 7.4 21.0
2016-May-02 07:47N 31°06' W 042°19'0 0.0 21.0
2016-May-02 06:36N 31°06' W 042°19'0 0.0 20.9
2016-May-02 06:32N 31°06' W 042°19'110.2 20.9
2016-May-02 06:29N 31°05' W 042°19'1 0.2 20.9
2016-May-02 01:56N 31°06' W 042°20'1 0.2 21.0
2016-May-01 22:38N 31°06' W 042°20'0 4.0
2016-May-01 22:33N 31°06' W 042°21'0 0.0 21.1
2016-May-01 21:54N 31°06' W 042°21'0 3.6 21.1
2016-May-01 21:47N 31°06' W 042°21'0 0.0 21.1
2016-May-01 21:09N 31°06' W 042°21'0 0.0 21.2
2016-May-01 21:05N 31°06' W 042°21'0 0.0 21.2
2016-May-01 20:56N 31°06' W 042°21'0 3.1 21.2
2016-May-01 20:50N 31°06' W 042°21'0 0.0 21.2
2016-May-01 20:17N 31°06' W 042°21'0 0.1 21.2
2016-May-01 19:29N 31°06' W 042°21'0 0.2 21.2
2016-May-01 18:35N 31°06' W 042°21'0 0.6 21.2
2016-May-01 18:11N 31°06' W 042°21'0 2.3 21.2
2016-May-01 18:06N 31°06' W 042°21'1 0.3 21.2
2016-May-01 16:30N 31°06' W 042°22'0 0.2 21.2
2016-May-01 14:36N 31°06' W 042°22'0 0.5
2016-May-01 13:45N 31°06' W 042°22'0 0.0 21.0
2016-May-01 13:02N 31°06' W 042°22'0 0.4 20.9
2016-May-01 12:03N 31°06' W 042°23'0 0.2 20.9
2016-May-01 10:39N 31°06' W 042°23'0 0.3 20.8
2016-May-01 10:21N 31°06' W 042°23'0 0.5 20.8
2016-May-01 09:48N 31°06' W 042°23'0 4.1 20.8
2016-May-01 09:41N 31°06' W 042°23'0 0.4 20.8
2016-May-01 08:44N 31°06' W 042°23'0 0.5 20.8
2016-May-01 07:56N 31°05' W 042°23'0 0.2 20.8
2016-May-01 07:17N 31°05' W 042°23'0 2.1 20.8
2016-May-01 07:11N 31°05' W 042°23'0 0.0 20.8
2016-May-01 07:03N 31°05' W 042°23'0 0.6 20.8
2016-May-01 06:48N 31°05' W 042°23'0 0.9 20.8
2016-May-01 06:41N 31°05' W 042°23'0 8.2 20.8
2016-May-01 06:39N 31°06' W 042°23'1 0.4 20.8
2016-May-01 04:59N 31°06' W 042°23'0 0.0 20.8
2016-May-01 01:24N 31°06' W 042°23'0 0.2 20.8
2016-May-01 00:33N 31°06' W 042°23'0 0.6 20.8
2016-Apr-30 23:50N 31°06' W 042°24'0 1.6 20.8
2016-Apr-30 23:47N 31°06' W 042°24'0 2.9 20.8
2016-Apr-30 23:42N 31°07' W 042°24'0 0.2 20.8
2016-Apr-30 21:32N 31°07' W 042°23'0 3.8 20.8
2016-Apr-30 21:26N 31°07' W 042°24'0 3.4 20.9
2016-Apr-30 21:21N 31°07' W 042°23'0 0.8 20.9
2016-Apr-30 21:11N 31°07' W 042°24'0 0.0 20.9
2016-Apr-30 20:42N 31°07' W 042°24'0 1.2 20.9
2016-Apr-30 20:38N 31°07' W 042°23'0 0.3 20.9
2016-Apr-30 19:51N 31°07' W 042°24'0 0.0 20.9
2016-Apr-30 19:41N 31°07' W 042°24'0 0.2 20.9
2016-Apr-30 18:20N 31°07' W 042°23'0 0.6 20.9
2016-Apr-30 18:15N 31°07' W 042°23'1 0.4 20.9
2016-Apr-30 14:57N 31°09' W 042°24'0 0.3
2016-Apr-30 14:08N 31°09' W 042°24'0 0.1 20.7
2016-Apr-30 13:21N 31°09' W 042°24'1 0.5 20.7
2016-Apr-30 12:24N 31°09' W 042°24'0 0.1 20.7
2016-Apr-30 11:00N 31°09' W 042°24'0 0.0 20.6
2016-Apr-30 09:56N 31°09' W 042°24'0 1.4 20.6
2016-Apr-30 09:51N 31°09' W 042°24'0 0.0 20.6
2016-Apr-30 09:23N 31°09' W 042°24'0 0.3 20.6
2016-Apr-30 09:08N 31°09' W 042°24'0 0.3 20.6
2016-Apr-30 08:08N 31°09' W 042°24'0 0.1 20.5
2016-Apr-30 07:44N 31°09' W 042°24'0 0.4 20.6
2016-Apr-30 07:33N 31°09' W 042°24'0 0.3 20.6
2016-Apr-30 06:56N 31°09' W 042°24'0 3.4 20.5
2016-Apr-30 06:51N 31°09' W 042°24'0 0.0 20.5
2016-Apr-30 05:21N 31°09' W 042°24'1 5.9 20.6
2016-Apr-30 05:09N 31°10' W 042°23'0 0.0 20.6
2016-Apr-30 00:56N 31°10' W 042°23'0 9.2 20.6
2016-Apr-30 00:53N 31°10' W 042°23'0 0.3 20.6
2016-Apr-30 00:11N 31°10' W 042°23'0 4.4 20.6
2016-Apr-30 00:06N 31°10' W 042°23'0 7.8 20.6
2016-Apr-30 00:03N 31°10' W 042°23'0 0.0 20.6
2016-Apr-29 23:21N 31°10' W 042°23'0 0.1 20.6
2016-Apr-29 22:03N 31°10' W 042°23'0 0.2 20.6
2016-Apr-29 21:32N 31°10' W 042°23'0 2.6 20.7
2016-Apr-29 21:26N 31°10' W 042°23'0 0.0 20.7
2016-Apr-29 21:06N 31°10' W 042°23'0 2.0 20.7
2016-Apr-29 20:59N 31°10' W 042°23'0 0.2 20.7
2016-Apr-29 19:51N 31°10' W 042°23'0 0.4 20.8
2016-Apr-29 19:26N 31°10' W 042°23'0 9.5 20.8
2016-Apr-29 19:23N 31°10' W 042°22'0 0.0 20.8
2016-Apr-29 18:33N 31°10' W 042°22'1 6.0 20.8
2016-Apr-29 18:26N 31°09' W 042°23'0 0.0 20.8
2016-Apr-29 18:06N 31°09' W 042°23'0 0.3 20.8
2016-Apr-29 16:42N 31°09' W 042°22'0 0.0 20.8
2016-Apr-29 14:29N 31°09' W 042°22'0 0.0 20.7
2016-Apr-29 13:44N 31°09' W 042°22'0 4.7 20.7
2016-Apr-29 13:39N 31°09' W 042°22'0 0.4 20.7
2016-Apr-29 12:47N 31°09' W 042°22'0 0.0 20.6
2016-Apr-29 12:02N 31°09' W 042°22'0 0.0 20.6
2016-Apr-29 11:56N 31°09' W 042°22'014.0 20.6
2016-Apr-29 11:54N 31°08' W 042°22'0 0.3 20.6
2016-Apr-29 11:08N 31°08' W 042°22'0 0.0 20.6
2016-Apr-29 10:11N 31°08' W 042°22'0 1.0 20.6
2016-Apr-29 10:03N 31°09' W 042°22'0 1.4 20.6
2016-Apr-29 09:50N 31°08' W 042°22'0 1.9 20.6
2016-Apr-29 09:39N 31°08' W 042°22'0 0.3 20.6
2016-Apr-29 08:20N 31°08' W 042°22'0 0.3 20.6
2016-Apr-29 08:08N 31°08' W 042°22'0 7.1 20.6
2016-Apr-29 08:06N 31°08' W 042°23'0 0.4 20.6
2016-Apr-29 07:09N 31°08' W 042°23'1 6.3 20.6
2016-Apr-29 07:03N 31°07' W 042°22'0 0.2 20.6
2016-Apr-29 05:20N 31°08' W 042°22'0 0.0 20.6
2016-Apr-29 01:20N 31°07' W 042°22'0 3.6 20.7
2016-Apr-29 01:14N 31°07' W 042°22'0 0.3 20.7
2016-Apr-29 00:26N 31°07' W 042°22'1 0.6 20.7
2016-Apr-28 22:51N 31°08' W 042°22'1 0.7 20.7
2016-Apr-28 21:54N 31°08' W 042°23'0 0.0 20.7
2016-Apr-28 21:42N 31°08' W 042°23'0 1.3 20.7
2016-Apr-28 21:36N 31°08' W 042°23'0 0.0 20.7
2016-Apr-28 21:30N 31°08' W 042°23'0 0.2 20.7
2016-Apr-28 20:44N 31°08' W 042°23'0 0.0 20.7
2016-Apr-28 20:03N 31°08' W 042°23'0 1.9 20.7
2016-Apr-28 19:53N 31°08' W 042°23'0 0.0 20.7
2016-Apr-28 19:48N 31°08' W 042°23'0 0.0 20.7
2016-Apr-28 18:44N 31°08' W 042°23'0 5.2 20.8
2016-Apr-28 18:41N 31°08' W 042°23'112.5 20.8
2016-Apr-28 18:38N 31°08' W 042°24'0 0.0 20.8
2016-Apr-28 18:20N 31°08' W 042°24'1 5.1 20.8
2016-Apr-28 18:06N 31°07' W 042°24'0 0.1 20.8
2016-Apr-28 14:03N 31°06' W 042°23'0 2.3 20.8
2016-Apr-28 13:56N 31°06' W 042°23'0 0.1
2016-Apr-28 11:32N 31°06' W 042°23'0 1.6 20.7
2016-Apr-28 11:27N 31°06' W 042°23'0 0.1 20.7
2016-Apr-28 10:38N 31°06' W 042°23'0 0.5 20.7
2016-Apr-28 10:09N 31°06' W 042°23'0 0.0 20.7
2016-Apr-28 08:42N 31°06' W 042°23'0 0.0
2016-Apr-28 08:39N 31°06' W 042°23'0 0.2 20.7
2016-Apr-28 07:21N 31°06' W 042°23'1 4.3 20.7
2016-Apr-28 07:11N 31°06' W 042°23'0 1.2
2016-Apr-28 06:56N 31°06' W 042°23'0 0.3 20.7
2016-Apr-28 05:44N 31°06' W 042°23'1 0.2 20.7
2016-Apr-28 01:35N 31°06' W 042°23'0 0.0 20.7
2016-Apr-28 00:47N 31°06' W 042°23'0 0.4 20.7
2016-Apr-27 23:53N 31°06' W 042°24'0 0.0 20.7
2016-Apr-27 23:11N 31°06' W 042°24'0 0.0 20.7
2016-Apr-27 23:06N 31°06' W 042°24'0 0.0 20.7
2016-Apr-27 23:02N 31°06' W 042°24'0 0.3 20.7
2016-Apr-27 21:53N 31°07' W 042°23'0 0.9 20.8
2016-Apr-27 21:48N 31°07' W 042°23'1 0.5 20.8
2016-Apr-27 20:11N 31°07' W 042°24'0 2.9 20.8
2016-Apr-27 20:06N 31°08' W 042°24'0 0.8 20.8
2016-Apr-27 19:39N 31°08' W 042°24'0 0.0 20.8
2016-Apr-27 18:54N 31°08' W 042°24'0 0.8 20.8
2016-Apr-27 18:35N 31°08' W 042°24'0 9.0 20.8
2016-Apr-27 18:32N 31°08' W 042°25'1 0.3 20.8
2016-Apr-27 15:33N 31°08' W 042°26'1 0.6 20.9
2016-Apr-27 14:23N 31°07' W 042°26'0 8.9 20.8
2016-Apr-27 14:20N 31°07' W 042°26'0 0.0 20.8
2016-Apr-27 13:35N 31°07' W 042°26'0 0.0 20.8
2016-Apr-27 12:44N 31°07' W 042°26'0 3.2 20.7
2016-Apr-27 12:39N 31°07' W 042°26'1 7.6 20.7
2016-Apr-27 12:35N 31°07' W 042°27'0 0.0 20.7
2016-Apr-27 11:48N 31°07' W 042°27'0 0.4 20.6
2016-Apr-27 10:39N 31°07' W 042°27'0 1.9 20.6
2016-Apr-27 10:33N 31°07' W 042°27'0 0.3 20.6
2016-Apr-27 09:09N 31°07' W 042°27'0 0.0 20.6
2016-Apr-27 09:05N 31°07' W 042°27'0 2.6 20.6
2016-Apr-27 09:02N 31°07' W 042°27'0 1.5 20.6
2016-Apr-27 08:44N 31°07' W 042°28'0 0.1 20.6
2016-Apr-27 07:30N 31°07' W 042°28'0 7.1 20.6
2016-Apr-27 07:29N 31°07' W 042°28'0 1.5 20.6
2016-Apr-27 07:27N 31°07' W 042°28'0 2.6 20.6
2016-Apr-27 07:17N 31°08' W 042°28'1 5.2 20.6
2016-Apr-27 07:11N 31°07' W 042°28'0 0.0 20.6
2016-Apr-27 07:05N 31°07' W 042°28'0 0.0 20.6
2016-Apr-27 05:51N 31°07' W 042°28'0 0.0 20.6
2016-Apr-27 05:44N 31°07' W 042°28'1 0.5 20.6
2016-Apr-27 04:03N 31°08' W 042°29'0 0.1 20.6
2016-Apr-27 01:11N 31°08' W 042°29'0 0.0 20.7
2016-Apr-27 01:06N 31°08' W 042°29'0 0.0 20.7
2016-Apr-27 00:23N 31°08' W 042°29'0 2.1 20.7
2016-Apr-27 00:20N 31°08' W 042°29'0 2.8 20.7
2016-Apr-27 00:14N 31°08' W 042°29'0 0.0 20.7
2016-Apr-26 23:33N 31°08' W 042°29'0 1.6 20.7
2016-Apr-26 23:30N 31°08' W 042°29'1 5.7 20.7
2016-Apr-26 23:23N 31°08' W 042°30'0 0.5 20.7
2016-Apr-26 22:36N 31°08' W 042°30'0 0.0 20.7
2016-Apr-26 22:15N 31°08' W 042°30'0 0.5 20.7
2016-Apr-26 22:05N 31°08' W 042°30'0 0.0 20.7
2016-Apr-26 21:56N 31°08' W 042°30'1 0.8 20.7
2016-Apr-26 20:42N 31°09' W 042°31'0 2.4 20.7
2016-Apr-26 20:33N 31°09' W 042°32'0 0.0 20.7
2016-Apr-26 20:27N 31°09' W 042°32'0 0.4 20.7
2016-Apr-26 20:18N 31°09' W 042°32'1 7.9 20.7
2016-Apr-26 20:09N 31°09' W 042°33'0 0.0 20.7
2016-Apr-26 19:03N 31°09' W 042°33'0 2.1 20.7
2016-Apr-26 19:00N 31°09' W 042°33'0 1.0 20.7
2016-Apr-26 18:45N 31°09' W 042°33'1 0.9 20.7
2016-Apr-26 17:27N 31°09' W 042°35'213.4 20.6
2016-Apr-26 17:18N 31°09' W 042°37'1 0.6 20.6
2016-Apr-26 15:45N 31°09' W 042°38'1 0.5 20.6
2016-Apr-26 14:41N 31°09' W 042°38'0 0.0 20.5
2016-Apr-26 13:56N 31°09' W 042°38'1 4.0 20.5
2016-Apr-26 13:45N 31°08' W 042°39'0 0.0
2016-Apr-26 13:05N 31°08' W 042°39'0 0.4 20.5
2016-Apr-26 12:11N 31°08' W 042°39'0 5.2 20.4
2016-Apr-26 12:08N 31°08' W 042°39'1 1.1 20.4
2016-Apr-26 11:18N 31°08' W 042°40'0 0.6 20.4
2016-Apr-26 11:00N 31°08' W 042°40'1 2.0 20.4
2016-Apr-26 10:44N 31°08' W 042°40'0 7.8 20.4
2016-Apr-26 10:41N 31°07' W 042°40'0 0.0 20.4
2016-Apr-26 09:41N 31°07' W 042°40'0 3.2 20.5
2016-Apr-26 09:38N 31°07' W 042°40'0 0.3 20.5
2016-Apr-26 09:17N 31°07' W 042°40'1 1.7 20.5
2016-Apr-26 08:53N 31°07' W 042°40'0 0.0 20.5
2016-Apr-26 07:56N 31°07' W 042°40'0 1.1 20.5
2016-Apr-26 07:41N 31°07' W 042°41'0 0.2 20.5
2016-Apr-26 07:21N 31°07' W 042°41'1 7.7 20.5
2016-Apr-26 07:15N 31°07' W 042°42'0 0.0 20.5
2016-Apr-26 06:06N 31°07' W 042°42'0 0.8 20.6
2016-Apr-26 06:02N 31°07' W 042°42'2 1.0 20.6
2016-Apr-26 04:15N 31°08' W 042°44'0 0.1 20.6
2016-Apr-26 01:27N 31°08' W 042°44'1 0.8 20.8
2016-Apr-26 00:36N 31°08' W 042°44'1 0.9 20.9
2016-Apr-25 23:54N 31°08' W 042°44'0 0.0 20.9
2016-Apr-25 23:50N 31°08' W 042°44'1 0.8 20.9
2016-Apr-25 23:03N 31°09' W 042°45'0 2.6 20.9
2016-Apr-25 22:56N 31°09' W 042°45'0 0.5 20.9
2016-Apr-25 22:15N 31°09' W 042°45'120.6 20.9
2016-Apr-25 22:11N 31°10' W 042°45'0 0.4 21.0
2016-Apr-25 21:06N 31°10' W 042°46'1 1.3 21.0
2016-Apr-25 20:41N 31°10' W 042°46'0 0.9 21.1
2016-Apr-25 20:36N 31°10' W 042°46'223.0 21.1
2016-Apr-25 20:32N 31°12' W 042°47'0 0.0 21.1
2016-Apr-25 19:18N 31°12' W 042°47'0 0.0 21.3
2016-Apr-25 19:14N 31°12' W 042°47'1 0.8 21.3
2016-Apr-25 17:39N 31°12' W 042°48'1 0.8 21.5
2016-Apr-25 15:56N 31°13' W 042°49'2 0.9 21.5
2016-Apr-25 14:09N 31°14' W 042°51'0 0.0 20.8
2016-Apr-25 13:26N 31°14' W 042°51'1 0.7 20.7
2016-Apr-25 12:39N 31°14' W 042°51'1 1.3 20.6
2016-Apr-25 11:38N 31°14' W 042°53'0 0.1 20.5
2016-Apr-25 10:53N 31°14' W 042°53'0 5.6 20.4
2016-Apr-25 10:48N 31°15' W 042°53'0 0.1 20.4
2016-Apr-25 10:09N 31°15' W 042°53'0 4.7 20.4
2016-Apr-25 10:05N 31°15' W 042°53'0 0.0 20.4
2016-Apr-25 09:44N 31°15' W 042°53'014.9 20.4
2016-Apr-25 09:42N 31°15' W 042°53'0 0.2 20.4
2016-Apr-25 09:11N 31°15' W 042°53'1 0.7 20.4
2016-Apr-25 08:23N 31°16' W 042°54'0 0.0 20.4
2016-Apr-25 08:06N 31°16' W 042°54'0 4.7 20.4
2016-Apr-25 08:00N 31°16' W 042°54'0 0.0 20.4
2016-Apr-25 07:53N 31°16' W 042°54'0 9.3 20.4
2016-Apr-25 07:50N 31°16' W 042°54'0 0.0 20.4
2016-Apr-25 07:30N 31°16' W 042°54'1 1.3
2016-Apr-25 06:51N 31°16' W 042°54'0 0.1 20.4
2016-Apr-25 06:18N 31°16' W 042°54'1 5.5 20.4
2016-Apr-25 06:03N 31°17' W 042°55'3 0.7 20.4
2016-Apr-25 00:56N 31°20' W 042°58'0 0.0 20.5
2016-Apr-25 00:11N 31°20' W 042°58'1 0.8 20.5
2016-Apr-24 23:24N 31°21' W 042°58'0 1.0 20.5
2016-Apr-24 22:56N 31°21' W 042°58'0 0.6 20.5
2016-Apr-24 22:35N 31°21' W 042°59'112.3 20.5
2016-Apr-24 22:30N 31°22' W 042°60'0 0.0 20.5
2016-Apr-24 21:30N 31°22' W 042°60'1 0.9 20.5
2016-Apr-24 20:50N 31°22' W 043°00'1 9.3 20.5
2016-Apr-24 20:41N 31°23' W 043°01'1 0.7 20.5
2016-Apr-24 19:50N 31°23' W 043°02'0 0.0 20.5
2016-Apr-24 19:09N 31°23' W 043°02'149.5 20.5
2016-Apr-24 19:08N 31°23' W 043°03'0 0.0 20.5
2016-Apr-24 17:50N 31°23' W 043°03'3 0.8 20.5
2016-Apr-24 14:30N 31°24' W 043°06'0 0.0 20.4
2016-Apr-24 13:47N 31°24' W 043°06'0 0.5 20.4
2016-Apr-24 12:56N 31°24' W 043°06'1 1.0 20.4
2016-Apr-24 11:57N 31°25' W 043°07'0 0.0 20.4
2016-Apr-24 11:17N 31°25' W 043°07'0 2.8 20.4
2016-Apr-24 11:11N 31°25' W 043°07'0 0.0 20.4
2016-Apr-24 11:05N 31°25' W 043°07'1 1.0 20.4
2016-Apr-24 10:06N 31°25' W 043°09'0 0.0 20.3
2016-Apr-24 09:29N 31°25' W 043°09'0 2.1 20.3
2016-Apr-24 09:17N 31°25' W 043°09'0 2.1 20.3
2016-Apr-24 09:05N 31°25' W 043°09'0 1.6 20.3
2016-Apr-24 08:56N 31°26' W 043°09'1 1.4 20.3
2016-Apr-24 08:26N 31°26' W 043°10'0 0.0 20.3
2016-Apr-24 07:44N 31°26' W 043°10'1 6.2 20.3
2016-Apr-24 07:39N 31°26' W 043°10'0 0.0 20.3
2016-Apr-24 07:23N 31°26' W 043°10'1 0.8 20.3
2016-Apr-24 06:29N 31°26' W 043°11'0 1.0 20.3
2016-Apr-24 06:26N 31°26' W 043°11'1 7.8 20.3
2016-Apr-24 06:18N 31°26' W 043°12'0 0.0 20.3
2016-Apr-24 04:47N 31°26' W 043°12'3 0.8 20.3
2016-Apr-24 01:23N 31°27' W 043°15'1 7.0 20.3
2016-Apr-24 01:18N 31°27' W 043°16'1 0.6 20.3
2016-Apr-23 23:24N 31°27' W 043°17'0 0.0 20.3
2016-Apr-23 22:56N 31°27' W 043°17'0 1.6 20.3
2016-Apr-23 22:50N 31°27' W 043°17'125.0 20.3
2016-Apr-23 22:47N 31°28' W 043°18'0 0.4 20.3
2016-Apr-23 22:00N 31°28' W 043°18'0 2.7
2016-Apr-23 21:53N 31°27' W 043°17'1 1.1 20.3
2016-Apr-23 20:56N 31°28' W 043°19'124.8 20.3
2016-Apr-23 20:54N 31°28' W 043°18'2 2.9 20.3
2016-Apr-23 20:17N 31°28' W 043°20'1 3.8 20.3
2016-Apr-23 20:03N 31°29' W 043°20'0 0.0 20.3
2016-Apr-23 19:18N 31°29' W 043°20'1 0.8 20.4
2016-Apr-23 17:56N 31°28' W 043°22'3 0.9
2016-Apr-23 14:06N 31°29' W 043°25'111.3 20.3
2016-Apr-23 14:00N 31°29' W 043°27'0 0.0 20.3
2016-Apr-23 13:20N 31°29' W 043°27'0 0.0 20.3
2016-Apr-23 13:11N 31°29' W 043°27'1 0.9 20.3
2016-Apr-23 12:26N 31°29' W 043°27'1 7.6 20.3
2016-Apr-23 12:18N 31°30' W 043°29'0 0.3 20.3
2016-Apr-23 11:30N 31°30' W 043°29'0 0.0 20.3
2016-Apr-23 11:15N 31°30' W 043°29'0 5.7 20.3
2016-Apr-23 11:11N 31°30' W 043°29'0 0.0 20.3
2016-Apr-23 10:39N 31°30' W 043°29'1 4.3 20.3
2016-Apr-23 10:30N 31°29' W 043°30'0 0.0 20.3
2016-Apr-23 09:38N 31°29' W 043°30'0 1.2 20.3
2016-Apr-23 09:32N 31°29' W 043°30'1 1.3 20.3
2016-Apr-23 08:50N 31°29' W 043°31'0 0.0 20.3
2016-Apr-23 07:59N 31°29' W 043°31'0 1.6 20.3
2016-Apr-23 07:56N 31°29' W 043°31'113.3 20.3
2016-Apr-23 07:50N 31°30' W 043°32'0 0.0 20.3
2016-Apr-23 07:15N 31°30' W 043°32'0 0.0 20.3
2016-Apr-23 06:38N 31°30' W 043°32'0 0.6 20.3
2016-Apr-23 06:33N 31°30' W 043°32'   20.3

Dump ship's entire track history